M I D A S
Marine Information and Data Acquisition System
Tripno 227 of the Zeeleeuw from 2002-03-21 08:06:56 to 2002-03-21 14:39:55
Back to CruiseResearch ActivitiesStationsMapUnderway DataData graphs

EquipmentUnitsComment
TimeDGPSUTC
LatitudeDGPSDM.mWGS84
LongitudeDGPSDM.mWGS84
TemperatureSBE03/SBE38deg celciusITS90
ConductivitySBE21S/mITS90
SalinitySBE21 Practical Salinity Units
ChlorophylAChelsea fluorimeterg/lCalibrated in Aceton
Missing or incorrect values are displayed as -999
Sea surface data collected by the RV Zeeleeuw from 2002-03-21 08:06:56 to 2002-03-21 14:39:55
Time Latitude Longitude Temperature Conductivity Salinity ChlorophylA
2002-03-21 09:08:02 51°14.027 2°53.425 10.288827 3.375377 30.876644  
2002-03-21 09:09:02 51°13.924 2°53.147 10.260244 3.39491 31.082632  
2002-03-21 09:10:01 51°13.819 2°52.867 10.380564 3.402122 31.142406  
2002-03-21 09:11:02 51°13.701 2°52.555 10.334712 3.412039 31.246672  
2002-03-21 09:12:02 51°13.584 2°52.244 10.244732 3.425162 31.392171  
2002-03-21 09:13:01 51°13.465 2°51.944 10.434399 3.436181 31.506403  
2002-03-21 09:14:01 51°13.345 2°51.638 10.254684 3.444395 31.555497  
2002-03-21 09:15:01 51°13.225 2°51.331 10.380285 3.446299 31.57054  
2002-03-21 09:16:01 51°13.104 2°51.023 10.521513 3.451809 31.622245  
2002-03-21 09:17:02 51°12.982 2°50.709 10.298539 3.460825 31.716098  
2002-03-21 09:18:02 51°12.86 2°50.4 10.27491 3.463229 31.732617  
2002-03-21 09:19:02 51°12.741 2°50.09 10.432768 3.466234 31.754521  
2002-03-21 09:20:01 51°12.622 2°49.785 10.418183 3.478657 31.874362  
2002-03-21 09:21:02 51°12.497 2°49.468 10.308809 3.510315 32.184205  
2002-03-21 09:22:02 51°12.376 2°49.155 9.795883 3.541074 32.578345  
2002-03-21 09:23:02 51°12.273 2°48.828 10.161974 3.553398 32.736444  
2002-03-21 09:24:01 51°12.167 2°48.508 10.429414 3.559811 32.811839  
2002-03-21 09:25:02 51°12.058 2°48.175 10.155143 3.561714 32.836588  
2002-03-21 09:26:01 51°11.953 2°47.853 10.333359 3.569029 32.9123  
2002-03-21 09:27:01 51°11.847 2°47.525 10.31315 3.56973 32.920241  
2002-03-21 09:28:02 51°11.739 2°47.191 10.171144 3.571433 32.933192  
2002-03-21 09:29:01 51°11.635 2°46.867 9.943871 3.572636 32.937246  
2002-03-21 09:30:02 51°11.535 2°46.526 10.146767 3.573437 32.940199  
2002-03-21 09:31:02 51°11.454 2°46.177 9.88014 3.573136 32.933362  
2002-03-21 09:32:02 51°11.367 2°45.831 10.114142 3.574038 32.938844  
2002-03-21 09:33:02 51°11.282 2°45.483 10.113299 3.57484 32.94405  
2002-03-21 09:34:02 51°11.196 2°45.135 10.488702 3.575241 32.953417  
2002-03-21 09:35:02 51°11.122 2°44.783 10.262813 3.576343 32.964711  
2002-03-21 09:36:02 51°11.097 2°44.412 10.108196 3.576844 32.971348  
2002-03-21 09:37:02 51°11.093 2°44.039 9.937721 3.576944 32.972375  
2002-03-21 09:38:02 51°11.091 2°43.666 10.068336 3.575441 32.981806  
2002-03-21 09:39:01 51°11.089 2°43.299 9.901891 3.571234 32.996675  
2002-03-21 09:40:02 51°11.087 2°42.921 9.962598 3.567327 33.002604  
2002-03-21 09:41:02 51°11.092 2°42.55 9.895503 3.563921 33.016751  
2002-03-21 09:42:02 51°11.096 2°42.183 10.047999 3.562919 33.027659  
2002-03-21 09:43:02 51°11.118 2°41.971 9.885919 3.563821 33.030124  
2002-03-21 09:44:02 51°11.127 2°41.936 9.497334 3.563821 33.039987  
2002-03-21 09:45:02 51°11.127 2°41.93 9.996847 3.562919 33.035247  
2002-03-21 09:46:02 51°11.135 2°41.922 9.060033 3.56352 33.042961  
2002-03-21 09:47:02 51°11.15 2°41.908 9.14387 3.563721 33.029091  
2002-03-21 09:48:02 51°11.169 2°41.892 9.025001 3.562418 33.027049  
2002-03-21 09:49:00 51°11.189 2°41.884 9.027048 3.562619 33.029873  
2002-03-21 09:50:02 51°11.213 2°41.881 9.033808 3.563721 33.039713  
2002-03-21 09:51:01 51°11.234 2°41.884 9.042995 3.564322 33.040596  
2002-03-21 09:52:02 51°11.256 2°41.897 9.038807 3.565123 33.038991  
2002-03-21 09:53:02 51°11.274 2°41.91 9.025239 3.565123 33.045061  
2002-03-21 09:54:02 51°11.294 2°41.961 9.017383 3.564522 33.047215  
2002-03-21 09:55:02 51°11.21 2°42 9.062126 3.564422 33.044664  
2002-03-21 09:56:02 51°11.136 2°41.791 9.019383 3.564622 33.048247  
2002-03-21 09:57:01 51°10.997 2°41.633 9.023858 3.564522 33.044938  
2002-03-21 09:58:02 51°10.801 2°41.497 9.04785 3.564422 33.037076  
2002-03-21 09:59:02 51°10.589 2°41.368 9.380058 3.565624 33.018378  
2002-03-21 10:00:00 51°10.377 2°41.295 9.44868 3.464231 31.73054  
2002-03-21 10:01:01 51°10.158 2°41.2 9.425404 3.398414 31.019369  
2002-03-21 10:02:02 51°9.966 2°41.062 9.276657 3.447601 31.572289  
2002-03-21 10:03:01 51°9.924 2°40.947 9.608784 3.318983 30.21397  
2002-03-21 10:04:02 51°9.925 2°40.928 9.411207 3.277918 29.713275  
2002-03-21 10:05:01 51°9.953 2°40.888 9.277368 3.426263 31.338436  
2002-03-21 10:06:00 51°10.014 2°40.859 9.346857 3.455415 31.672604  
2002-03-21 10:07:02 51°10.08 2°40.873 9.351878 3.437283 31.467447  
2002-03-21 10:08:02 51°10.129 2°40.929 9.308472 3.423959 31.321461  
2002-03-21 10:09:01 51°10.156 2°41.008 9.350457 3.457218 31.691671  
2002-03-21 10:10:01 51°10.161 2°41.101 9.360073 3.444395 31.534693  
2002-03-21 10:11:01 51°10.141 2°41.174 9.450241 3.388197 30.917364  
2002-03-21 10:12:02 51°10.114 2°41.218 9.66505 3.286331 29.814585  
2002-03-21 10:13:02 51°10.083 2°41.243 9.611756 3.163553 28.493624  
2002-03-21 10:14:02 51°10.05 2°41.255 9.666747 3.165756 28.508502  
2002-03-21 10:15:01 51°10.018 2°41.252 9.625202 3.155142 28.390046  
2002-03-21 10:16:02 51°9.988 2°41.229 9.707136 3.110684 27.926842  
2002-03-21 10:17:02 51°9.964 2°41.186 9.871399 2.996251 26.729712  
2002-03-21 10:18:02 51°9.942 2°41.133 9.703932 2.79948 24.696453  
2002-03-21 10:19:02 51°9.915 2°41.084 9.616805 3.130409 28.114397  
2002-03-21 10:20:02 51°9.885 2°41.037 9.723199 3.199302 28.851253  
2002-03-21 10:21:02 51°9.858 2°40.986 9.891745 2.989244 26.649989  
2002-03-21 10:22:02 51°9.848 2°40.919 9.829326 2.885145 25.539805  
2002-03-21 10:23:00 51°9.845 2°40.85 9.396108 3.200704 28.83406  
2002-03-21 10:24:02 51°9.838 2°40.775 9.386402 3.428967 31.319632  
2002-03-21 10:25:02 51°9.83 2°40.701 9.31307 3.46423 31.716122  
2002-03-21 10:26:02 51°9.82 2°40.626 9.358036 3.494186 32.060808  
2002-03-21 10:27:02 51°9.803 2°40.554 9.282917 3.5019 32.148201  
2002-03-21 10:28:02 51°9.785 2°40.482 9.304964 3.529753 32.486329  
2002-03-21 10:29:02 51°9.767 2°40.412 9.26627 3.475351 31.873336  
2002-03-21 10:30:02 51°9.751 2°40.349 9.545054 3.481262 31.946612  
2002-03-21 10:31:02 51°9.742 2°40.287 9.573669 3.255684 29.438988  
2002-03-21 10:32:02 51°9.741 2°40.228 9.353489 3.274913 29.621533  
2002-03-21 10:33:01 51°9.742 2°40.179 9.314492 3.493384 32.051184  
2002-03-21 10:34:02 51°9.744 2°40.126 9.337713 3.488074 31.99491  
2002-03-21 10:35:02 51°9.744 2°40.068 9.369071 3.461826 31.698891  
2002-03-21 10:36:02 51°9.741 2°40.009 9.388391 3.458821 31.658995  
2002-03-21 10:37:02 51°9.733 2°39.95 9.323923 3.48607 31.959235  
2002-03-21 10:38:01 51°9.719 2°39.893 9.24364 3.511317 32.236897  
2002-03-21 10:39:02 51°9.701 2°39.837 9.410355 3.54939 32.689448  
2002-03-21 10:40:02 51°9.681 2°39.783 9.680464 3.452709 31.50533  
2002-03-21 10:41:02 51°9.662 2°39.729 9.56909 3.430468 31.199717  
2002-03-21 10:42:02 51°9.642 2°39.675 9.527387 3.446497 31.381343  
2002-03-21 10:43:00 51°9.624 2°39.625 9.541181 3.467635 31.610735  
2002-03-21 10:44:02 51°9.604 2°39.576 9.545148 3.49819 31.906422  
2002-03-21 10:45:02 51°9.585 2°39.527 9.525876 3.516424 32.091895  
2002-03-21 10:46:02 51°9.566 2°39.476 9.486131 3.52444 32.194256  
2002-03-21 10:47:02 51°9.551 2°39.427 9.449105 3.528047 32.268082  
2002-03-21 10:48:02 51°9.544 2°39.382 9.487124 3.53466 32.35433  
2002-03-21 10:49:02 51°9.543 2°39.337 9.486225 3.53997 32.404664  
2002-03-21 10:50:02 51°9.549 2°39.299 9.436806 3.548187 32.553905  
2002-03-21 10:51:00 51°9.556 2°39.276 9.423085 3.543778 32.465462  
2002-03-21 10:52:02 51°9.563 2°39.259 9.478236 3.544178 32.460708  
2002-03-21 10:53:02 51°9.568 2°39.248 9.515008 3.541172 32.39487  
2002-03-21 10:54:02 51°9.572 2°39.242 9.560119 3.538566 32.32375  
2002-03-21 10:55:00 51°9.576 2°39.237 9.562055 3.543075 32.34611  
2002-03-21 10:56:02 51°9.579 2°39.231 9.569373 3.540169 32.31372  
2002-03-21 10:57:02 51°9.582 2°39.226 9.581836 3.537464 32.281914  
2002-03-21 10:58:01 51°9.584 2°39.219 9.591984 3.53526 32.251556  
2002-03-21 10:59:02 51°9.588 2°39.213 9.60147 3.532354 32.209748  
2002-03-21 11:00:02 51°9.59 2°39.206 9.593636 3.528747 32.166682  
2002-03-21 11:01:02 51°9.592 2°39.199 9.576124 3.521534 32.115387  
2002-03-21 11:02:00 51°9.594 2°39.192 9.581978 3.515422 32.0477  
2002-03-21 11:03:02 51°9.597 2°39.187 9.560827 3.514621 32.043202  
2002-03-21 11:04:00 51°9.599 2°39.181 9.550155 3.508009 31.997205  
2002-03-21 11:05:02 51°9.601 2°39.175 9.65199 3.508109 31.990993  
2002-03-21 11:06:00 51°9.604 2°39.169 9.564935 3.507207 31.97464  
2002-03-21 11:07:02 51°9.607 2°39.162 9.571262 3.502899 31.927422  
2002-03-21 11:08:02 51°9.609 2°39.156 9.555444 3.500194 31.909411  
2002-03-21 11:09:02 51°9.612 2°39.149 9.585329 3.496888 31.870906  
2002-03-21 11:10:02 51°9.615 2°39.142 9.581978 3.489173 31.782086  
2002-03-21 11:11:02 51°9.616 2°39.136 9.60633 3.475248 31.640583  
2002-03-21 11:12:02 51°9.617 2°39.129 9.609444 3.466332 31.535542  
2002-03-21 11:13:02 51°9.619 2°39.123 9.691162 3.453208 31.383948  
2002-03-21 11:14:02 51°9.62 2°39.117 9.653357 3.441687 31.246658  
2002-03-21 11:15:02 51°9.62 2°39.11 9.696252 3.429365 31.111356  
2002-03-21 11:16:02 51°9.651 2°39.084 9.660996 3.42115 30.996603  
2002-03-21 11:17:02 51°9.739 2°38.831 9.633975 3.405624 30.8934  
2002-03-21 11:18:02 51°9.751 2°38.468 9.402498 3.475949 31.654101  
2002-03-21 11:19:00 51°9.777 2°38.109 9.403492 3.537666 32.387834  
2002-03-21 11:20:02 51°9.807 2°37.725 9.331647 3.556502 32.615737  
2002-03-21 11:21:02 51°9.831 2°37.352 9.181925 3.570831 32.831866  
2002-03-21 11:22:02 51°9.854 2°36.978 9.16435 3.576243 33.02547  
2002-03-21 11:23:02 51°9.879 2°36.606 9.130753 3.573739 33.029205  
2002-03-21 11:24:02 51°9.901 2°36.233 9.167723 3.574941 33.032488  
2002-03-21 11:25:02 51°9.926 2°35.859 9.223138 3.576644 33.019017  
2002-03-21 11:26:02 51°9.93 2°35.546 9.144488 3.578447 33.029979  
2002-03-21 11:27:00 51°9.874 2°35.437 9.138738 3.580352 33.08883  
2002-03-21 11:28:02 51°9.8 2°35.43 9.166487 3.580652 33.082836  
2002-03-21 11:29:02 51°9.763 2°35.421 9.190474 3.578948 33.04418  
2002-03-21 11:30:02 51°9.711 2°35.39 9.198024 3.579149 33.029631  
2002-03-21 11:31:00 51°9.656 2°35.304 9.191329 3.579449 33.028188  
2002-03-21 11:32:02 51°9.627 2°35.23 9.181498 3.579149 33.032649  
2002-03-21 11:33:01 51°9.61 2°35.183 9.184347 3.578948 33.040405  
2002-03-21 11:34:00 51°9.599 2°35.153 9.187055 3.579149 33.037177  
2002-03-21 11:35:01 51°9.593 2°35.133 9.18088 3.579349 33.038478  
2002-03-21 11:36:01 51°9.601 2°35.091 9.160216 3.579049 33.043698  
2002-03-21 11:37:00 51°9.624 2°35.033 9.190331 3.578448 33.044324  
2002-03-21 11:38:02 51°9.647 2°34.975 9.200256 3.579149 33.034912  
2002-03-21 11:39:02 51°9.667 2°34.924 9.193228 3.579249 33.028395  
2002-03-21 11:40:02 51°9.685 2°34.878 9.192658 3.578948 33.029838  
2002-03-21 11:41:02 51°9.701 2°34.831 9.182353 3.579149 33.032649  
2002-03-21 11:42:00 51°9.713 2°34.787 9.170525 3.579349 33.045273  
2002-03-21 11:43:02 51°9.72 2°34.745 9.150808 3.57975 33.059208  
2002-03-21 11:44:02 51°9.719 2°34.702 9.148147 3.579249 33.068427  
2002-03-21 11:45:00 51°9.702 2°34.658 9.146959 3.57975 33.07433  
2002-03-21 11:46:02 51°9.666 2°34.624 9.192326 3.579851 33.077628  
2002-03-21 11:47:02 51°9.622 2°34.604 9.16378 3.580151 33.070883  
2002-03-21 11:48:02 51°9.583 2°34.58 9.175466 3.57975 33.058452  
2002-03-21 11:49:01 51°9.554 2°34.554 9.183588 3.579249 33.045755  
2002-03-21 11:50:02 51°9.529 2°34.534 9.191899 3.579349 33.039988  
2002-03-21 11:51:02 51°9.504 2°34.519 9.193323 3.579349 33.037724  
2002-03-21 11:52:01 51°9.48 2°34.505 9.198689 3.57985 33.034563  
2002-03-21 11:53:02 51°9.46 2°34.495 9.199923 3.579549 33.02997  
2002-03-21 11:54:02 51°9.445 2°34.491 9.200921 3.58005 33.032846  
2002-03-21 11:55:02 51°9.431 2°34.489 9.200256 3.57995 33.034836  
2002-03-21 11:56:00 51°9.414 2°34.485 9.201016 3.580451 33.038467  
2002-03-21 11:57:02 51°9.355 2°34.374 9.219958 3.581052 33.040106  
2002-03-21 11:58:02 51°9.443 2°34.303 9.198262 3.580151 33.051235  
2002-03-21 11:59:02 51°9.599 2°34.455 9.158648 3.580451 33.041485  
2002-03-21 12:00:02 51°9.768 2°34.66 9.126712 3.580552 33.086347  
2002-03-21 12:01:02 51°9.939 2°34.857 9.01205 3.58456 33.160903  
2002-03-21 12:02:02 51°10.106 2°35.061 9.006859 3.582958 33.233473  
2002-03-21 12:03:02 51°10.275 2°35.266 9.038807 3.581756 33.216495  
2002-03-21 12:04:02 51°10.442 2°35.47 9.04528 3.581956 33.193407  
2002-03-21 12:05:02 51°10.609 2°35.672 9.029762 3.580453 33.177922  
2002-03-21 12:06:02 51°10.778 2°35.876 8.993713 3.579752 33.188974  
2002-03-21 12:07:02 51°10.946 2°36.08 8.957025 3.579552 33.221235  
2002-03-21 12:08:02 51°11.115 2°36.285 8.929424 3.579151 33.251497  
2002-03-21 12:09:02 51°11.285 2°36.488 8.961314 3.57855 33.256002  
2002-03-21 12:10:02 51°11.453 2°36.695 8.971655 3.579853 33.241148  
2002-03-21 12:11:01 51°11.62 2°36.893 8.961553 3.580855 33.249198  
2002-03-21 12:12:01 51°11.787 2°37.099 8.93996 3.580654 33.260133  
2002-03-21 12:13:02 51°11.956 2°37.309 8.92313 3.579552 33.267121  
2002-03-21 12:14:01 51°12.125 2°37.499 8.914641 3.578651 33.271592  
2002-03-21 12:15:01 51°12.303 2°37.672 8.911016 3.57815 33.272544  
2002-03-21 12:16:02 51°12.499 2°37.804 8.891936 3.577849 33.275569  
2002-03-21 12:17:02 51°12.687 2°37.953 8.87891 3.577349 33.288031  
2002-03-21 12:18:02 51°12.877 2°38.1 8.90949 3.577148 33.29517  
2002-03-21 12:19:01 51°13.066 2°38.238 8.863782 3.577249 33.30312  
2002-03-21 12:20:02 51°13.263 2°38.385 8.847982 3.577349 33.313379  
2002-03-21 12:21:02 51°13.45 2°38.537 8.893892 3.578351 33.34145  
2002-03-21 12:22:02 51°13.641 2°38.681 8.827497 3.577951 33.361178  
2002-03-21 12:23:02 51°13.834 2°38.824 8.811736 3.57755 33.383253  
2002-03-21 12:24:02 51°14.036 2°38.934 8.759792 3.577751 33.398464  
2002-03-21 12:25:02 51°14.218 2°38.846 8.768396 3.576949 33.403284  
2002-03-21 12:26:02 51°14.312 2°38.53 8.735406 3.578051 33.414728  
2002-03-21 12:27:02 51°14.426 2°38.227 8.717087 3.578352 33.444948  
2002-03-21 12:28:02 51°14.537 2°37.921 8.71326 3.580857 33.483395  
2002-03-21 12:29:02 51°14.657 2°37.623 8.694456 3.583663 33.521115  
2002-03-21 12:30:01 51°14.752 2°37.352 8.739854 3.586168 33.556509  
2002-03-21 12:31:02 51°14.758 2°37.276 8.704026 3.586669 33.555496  
2002-03-21 12:32:02 51°14.757 2°37.276 8.702256 3.58737 33.56435  
2002-03-21 12:33:01 51°14.754 2°37.286 8.741719 3.586669 33.559387  
2002-03-21 12:34:02 51°14.747 2°37.298 8.704026 3.58727 33.561751  
2002-03-21 12:35:02 51°14.768 2°37.302 8.709385 3.58727 33.560194  
2002-03-21 12:36:02 51°14.828 2°37.496 8.705174 3.588472 33.566477  
2002-03-21 12:37:02 51°14.846 2°37.825 8.743488 3.58727 33.55786  
2002-03-21 12:38:02 51°14.861 2°38.169 8.698763 3.58727 33.560194  
2002-03-21 12:39:02 51°14.876 2°38.511 8.694456 3.58697 33.561737  
2002-03-21 12:40:02 51°14.888 2°38.861 8.694791 3.586369 33.558594  
2002-03-21 12:41:02 51°14.902 2°39.207 8.708428 3.583964 33.532017  
2002-03-21 12:42:02 51°14.908 2°39.556 8.710724 3.582461 33.504725  
2002-03-21 12:43:02 51°14.915 2°39.904 8.705844 3.581058 33.490137  
2002-03-21 12:44:01 51°14.933 2°40.251 8.70594 3.578453 33.468479  
2002-03-21 12:45:01 51°14.952 2°40.602 8.719957 3.580256 33.484906  
2002-03-21 12:46:02 51°14.969 2°40.959 8.757115 3.581959 33.480886  
2002-03-21 12:47:02 51°14.974 2°41.317 8.780345 3.579655 33.425959  
2002-03-21 12:48:02 51°14.977 2°41.67 8.827497 3.579554 33.408681  
2002-03-21 12:49:02 51°14.984 2°42.021 8.795684 3.579754 33.404579  
2002-03-21 12:50:02 51°14.984 2°42.371 8.810733 3.578151 33.380226  
2002-03-21 12:51:02 51°14.986 2°42.723 8.877001 3.579754 33.378334  
2002-03-21 12:52:02 51°14.991 2°43.074 8.839913 3.579754 33.358293  
2002-03-21 12:53:02 51°14.994 2°43.426 8.844783 3.583161 33.392052  
2002-03-21 12:54:02 51°14.998 2°43.774 8.885972 3.583461 33.387457  
2002-03-21 12:55:01 51°15.001 2°44.119 8.866598 3.579052 33.305654  
2002-03-21 12:56:02 51°15.006 2°44.477 8.849796 3.570636 33.246951  
2002-03-21 12:57:02 51°15.008 2°44.824 8.836714 3.569033 33.240329  
2002-03-21 12:58:02 51°15.01 2°45.168 8.861682 3.568131 33.242503  
2002-03-21 12:59:01 51°15.015 2°45.508 8.796066 3.566628 33.238452  
2002-03-21 13:00:02 51°15.016 2°45.865 8.807532 3.562321 33.232978  
2002-03-21 13:01:02 51°15.023 2°46.211 8.829551 3.563823 33.21476  
2002-03-21 13:02:02 51°15.028 2°46.56 8.884827 3.563021 33.188817  
2002-03-21 13:03:02 51°15.032 2°46.911 8.859772 3.564123 33.187968  
2002-03-21 13:04:02 51°15.036 2°47.262 8.877574 3.564323 33.177023  
2002-03-21 13:05:02 51°15.038 2°47.619 8.901954 3.564824 33.16002  
2002-03-21 13:06:02 51°15.046 2°47.979 8.928709 3.565926 33.152308  
2002-03-21 13:07:02 51°15.051 2°48.333 9.001334 3.568531 33.155552  
2002-03-21 13:08:02 51°15.054 2°48.682 9.007192 3.572037 33.165052  
2002-03-21 13:09:02 51°15.043 2°49.034 8.963697 3.571236 33.154491  
2002-03-21 13:10:02 51°15.035 2°49.386 8.943631 3.569232 33.139908  
2002-03-21 13:11:02 51°15.027 2°49.737 8.932475 3.564523 33.108062  
2002-03-21 13:12:02 51°15.019 2°50.09 8.909824 3.561517 33.085406  
2002-03-21 13:13:02 51°15.011 2°50.445 8.885304 3.55741 33.068116  
2002-03-21 13:14:02 51°15.003 2°50.793 8.897947 3.557109 33.078731  
2002-03-21 13:15:02 51°14.983 2°51.146 8.917789 3.562219 33.116286  
2002-03-21 13:16:02 51°14.963 2°51.498 8.929376 3.560014 33.081312  
2002-03-21 13:17:02 51°14.944 2°51.847 9.060651 3.553702 32.997122  
2002-03-21 13:18:02 51°14.914 2°52.198 8.969177 3.548592 32.912578  
2002-03-21 13:19:02 51°14.882 2°52.55 9.885402 3.54248 32.856387  
2002-03-21 13:20:02 51°14.85 2°52.901 9.862611 3.535567 32.766305  
2002-03-21 13:21:02 51°14.819 2°53.255 9.723717 3.531259 32.718936  
2002-03-21 13:22:02 51°14.773 2°53.603 9.860684 3.52184 32.589054  
2002-03-21 13:23:02 51°14.702 2°53.945 10.277339 3.497193 32.263275  
2002-03-21 13:24:02 51°14.628 2°54.279 10.498896 3.425463 31.439624  
2002-03-21 13:25:02 51°14.545 2°54.586 10.397022 3.360351 30.704734  
2002-03-21 13:26:02 51°14.447 2°54.876 10.341571 3.313074 30.187925  
2002-03-21 13:27:02 51°14.326 2°55.138 10.518302 3.257589 29.625152  
2002-03-21 13:28:02 51°14.19 2°55.352 10.422657 3.079948 27.788369  
2002-03-21 13:29:02 51°14.092 2°55.429 11.023634 2.360396 20.583876  
2002-03-21 13:30:02 51°14.023 2°55.482 10.871313 1.89235 16.079813  
2002-03-21 13:31:01 51°13.963 2°55.533 10.875849 1.78934 15.106671  
2002-03-21 13:32:02 51°13.908 2°55.575 10.849187 1.747028 14.701033  
2002-03-21 13:33:02 51°13.862 2°55.612 10.910872 1.550923 12.895311  
2002-03-21 13:34:02 51°13.817 2°55.651 12.858463 0.022559 0.149792  
2002-03-21 13:35:04 51°13.771 2°55.699 13.121042 0.347363 2.068002  
2002-03-21 13:36:06 51°13.731 2°55.764 13.987184 0.150377 0.835111  
2002-03-21 13:37:01 51°13.704 2°55.824 13.711582 0.11512 0.637277  
2002-03-21 13:38:02 51°13.691 2°55.888 14.298113 0.102581 0.565136  
2002-03-21 13:39:02 51°13.688 2°55.901 14.022195 0.098336 0.542679